createdAt,value
2018-07-26T00:00:43.573Z,25.20
2018-07-26T00:03:12.347Z,25.40
2018-07-26T00:05:41.333Z,25.60
2018-07-26T00:08:09.910Z,25.60
2018-07-26T00:10:38.530Z,25.50
2018-07-26T00:13:08.160Z,25.50
2018-07-26T00:15:36.855Z,25.50
2018-07-26T00:20:35.032Z,25.40
2018-07-26T00:23:03.915Z,25.30
2018-07-26T00:25:32.621Z,25.40
2018-07-26T00:28:01.280Z,25.90
2018-07-26T00:30:31.024Z,26.00
2018-07-26T00:32:59.630Z,25.50
2018-07-26T00:35:28.212Z,25.40
2018-07-26T00:37:56.867Z,25.40
2018-07-26T00:40:26.854Z,25.40
2018-07-26T00:42:56.794Z,25.40
2018-07-26T00:45:26.952Z,25.20
2018-07-26T00:47:57.862Z,25.20
2018-07-26T00:50:26.842Z,25.30
2018-07-26T00:52:56.134Z,25.10
2018-07-26T00:55:24.877Z,24.90
2018-07-26T00:57:58.608Z,24.90
2018-07-26T01:00:28.022Z,25.40
2018-07-26T01:05:25.172Z,25.00
2018-07-26T01:07:54.524Z,25.00
2018-07-26T01:10:23.160Z,25.00
2018-07-26T01:12:53.381Z,25.00
2018-07-26T01:15:22.767Z,25.00
2018-07-26T01:17:52.023Z,24.90
2018-07-26T01:20:20.636Z,24.90
2018-07-26T01:22:49.390Z,24.90
2018-07-26T01:25:18.112Z,25.40
2018-07-26T01:30:16.497Z,24.80
2018-07-26T01:35:13.862Z,24.90
2018-07-26T01:37:42.619Z,24.80
2018-07-26T01:40:11.251Z,24.80
2018-07-26T01:44:59.069Z,24.70
2018-07-26T01:47:28.193Z,24.50
2018-07-26T01:49:56.870Z,24.30
2018-07-26T01:52:25.626Z,24.20
2018-07-26T01:54:54.286Z,24.30
2018-07-26T01:57:23.061Z,24.30
2018-07-26T01:59:51.784Z,24.20
2018-07-26T02:04:49.232Z,24.30
2018-07-26T02:07:18.785Z,24.30
2018-07-26T02:12:15.935Z,24.20
2018-07-26T02:14:44.625Z,24.00
2018-07-26T02:17:13.383Z,24.00
2018-07-26T02:19:42.599Z,23.90
2018-07-26T02:22:11.284Z,23.90
2018-07-26T02:24:40.000Z,24.40
2018-07-26T02:27:08.827Z,24.30
2018-07-26T02:29:37.474Z,23.90
2018-07-26T02:32:06.387Z,23.80
2018-07-26T02:34:35.099Z,23.80
2018-07-26T02:39:32.486Z,23.90
2018-07-26T02:42:01.205Z,23.70
2018-07-26T02:44:29.907Z,23.70
2018-07-26T02:46:58.736Z,23.70
2018-07-26T02:49:27.383Z,23.70
2018-07-26T02:51:57.044Z,23.80
2018-07-26T02:54:25.620Z,23.70
2018-07-26T02:59:23.743Z,23.70
2018-07-26T03:04:21.115Z,23.50
2018-07-26T03:06:50.002Z,24.10
2018-07-26T03:11:48.429Z,23.60
2018-07-26T03:14:17.864Z,23.50
2018-07-26T03:16:47.152Z,23.50
2018-07-26T03:19:17.384Z,23.30
2018-07-26T03:21:46.671Z,23.40
2018-07-26T03:24:15.364Z,23.40
2018-07-26T03:26:43.994Z,23.20
2018-07-26T03:29:12.749Z,23.60
2018-07-26T03:31:41.535Z,23.20
2018-07-26T03:34:10.491Z,23.30
2018-07-26T03:36:39.172Z,23.10
2018-07-26T03:39:09.094Z,23.10
2018-07-26T03:41:37.980Z,23.10
2018-07-26T03:44:06.791Z,23.10
2018-07-26T03:46:35.451Z,22.80
2018-07-26T03:49:04.107Z,23.10
2018-07-26T03:51:34.993Z,23.00
2018-07-26T03:54:03.959Z,23.10
2018-07-26T03:56:33.477Z,22.80
2018-07-26T03:59:02.176Z,22.70
2018-07-26T04:01:30.848Z,22.70
2018-07-26T04:03:59.614Z,22.40
2018-07-26T04:08:57.895Z,22.90
2018-07-26T04:13:54.996Z,22.90
2018-07-26T04:16:25.004Z,23.30
2018-07-26T04:18:53.712Z,23.00
2018-07-26T04:21:22.584Z,22.70
2018-07-26T04:23:51.304Z,22.90
2018-07-26T04:26:20.076Z,22.60
2018-07-26T04:31:18.201Z,23.00
2018-07-26T04:33:47.087Z,23.40
2018-07-26T04:36:16.877Z,22.50
2018-07-26T04:41:14.696Z,23.00
2018-07-26T04:43:43.550Z,23.00
2018-07-26T04:46:12.250Z,23.00
2018-07-26T04:51:10.549Z,23.10
2018-07-26T04:56:08.267Z,23.10
2018-07-26T04:58:37.167Z,23.10
2018-07-26T05:01:06.209Z,22.90
2018-07-26T05:03:35.082Z,23.90
2018-07-26T05:06:04.993Z,23.30
2018-07-26T05:08:34.401Z,23.20
2018-07-26T05:11:03.963Z,23.80
2018-07-26T05:16:01.315Z,23.80
2018-07-26T05:18:31.012Z,23.50
2018-07-26T05:20:59.736Z,23.50
2018-07-26T05:23:28.522Z,24.00
2018-07-26T05:25:57.289Z,23.70
2018-07-26T05:28:26.132Z,23.70
2018-07-26T05:30:55.198Z,24.30
2018-07-26T05:33:24.989Z,23.90
2018-07-26T05:35:56.085Z,24.10
2018-07-26T05:41:00.005Z,24.30
2018-07-26T05:45:59.421Z,24.30
2018-07-26T05:48:28.343Z,24.30
2018-07-26T05:53:26.992Z,24.60
2018-07-26T05:55:55.985Z,24.70
2018-07-26T05:58:26.753Z,25.10
2018-07-26T06:00:56.305Z,24.90
2018-07-26T06:03:25.793Z,25.40
2018-07-26T06:05:54.670Z,25.10
2018-07-26T06:08:25.198Z,25.20
2018-07-26T06:10:56.180Z,25.30
2018-07-26T06:13:25.094Z,25.40
2018-07-26T06:15:56.394Z,25.50
2018-07-26T06:18:26.623Z,26.10
2018-07-26T06:20:56.133Z,25.70
2018-07-26T06:23:26.566Z,25.90
2018-07-26T06:25:56.996Z,25.80
2018-07-26T06:28:27.096Z,25.90
2018-07-26T06:30:57.182Z,26.00
2018-07-26T06:33:26.062Z,26.50
2018-07-26T06:35:58.245Z,26.30
2018-07-26T06:38:27.944Z,26.30
2018-07-26T06:40:57.408Z,26.40
2018-07-26T06:43:26.984Z,26.70
2018-07-26T06:45:55.876Z,26.90
2018-07-26T06:48:27.230Z,26.70
2018-07-26T06:50:57.311Z,27.20
2018-07-26T06:53:27.102Z,26.90
2018-07-26T06:58:25.630Z,27.10
2018-07-26T07:00:56.845Z,27.20
2018-07-26T07:03:27.130Z,27.40
2018-07-26T07:05:55.656Z,27.50
2018-07-26T07:08:24.619Z,27.60
2018-07-26T07:10:56.692Z,27.60
2018-07-26T07:13:27.446Z,28.20
2018-07-26T07:15:56.224Z,28.30
2018-07-26T07:18:26.006Z,28.10
2018-07-26T07:20:54.880Z,28.00
2018-07-26T07:28:22.229Z,28.30
2018-07-26T07:30:51.093Z,28.50
2018-07-26T07:33:19.968Z,28.80
2018-07-26T07:35:48.605Z,29.00
2018-07-26T07:38:17.417Z,28.70
2018-07-26T07:40:46.208Z,28.90
2018-07-26T07:43:15.650Z,28.90
2018-07-26T07:45:45.661Z,29.00
2018-07-26T07:48:14.618Z,29.20
2018-07-26T07:50:43.618Z,29.30
2018-07-26T07:53:13.614Z,29.40
2018-07-26T07:55:43.162Z,29.50
2018-07-26T07:58:12.796Z,29.50
2018-07-26T08:00:41.548Z,30.40
2018-07-26T08:03:10.081Z,30.30
2018-07-26T08:05:38.423Z,30.50
2018-07-26T08:08:07.047Z,30.90
2018-07-26T08:10:37.164Z,31.60
2018-07-26T08:13:06.009Z,33.00
2018-07-26T08:15:34.158Z,34.40
2018-07-26T08:18:02.833Z,35.50
2018-07-26T08:20:31.993Z,36.70
2018-07-26T08:23:00.516Z,37.60
2018-07-26T08:25:29.449Z,38.80
2018-07-26T08:27:58.191Z,39.60
2018-07-26T08:30:26.853Z,39.20
2018-07-26T08:32:55.671Z,39.70
2018-07-26T08:35:24.995Z,40.10
2018-07-26T08:37:54.342Z,40.90
2018-07-26T08:40:24.490Z,40.80
2018-07-26T08:42:55.190Z,40.70
2018-07-26T08:45:28.096Z,40.70
2018-07-26T08:47:56.904Z,40.60
2018-07-26T08:50:26.185Z,41.10
2018-07-26T08:52:55.022Z,41.60
2018-07-26T08:55:23.812Z,41.40
2018-07-26T08:57:52.598Z,41.60
2018-07-26T09:00:21.207Z,41.10
2018-07-26T09:02:49.779Z,41.50
2018-07-26T09:05:18.359Z,41.80
2018-07-26T09:07:46.902Z,41.60
2018-07-26T09:10:16.256Z,41.20
2018-07-26T09:12:44.850Z,41.40
2018-07-26T09:15:13.412Z,41.50
2018-07-26T09:17:42.092Z,41.40
2018-07-26T09:20:10.813Z,41.20
2018-07-26T09:22:39.451Z,41.60
2018-07-26T09:30:08.153Z,40.90
2018-07-26T09:32:37.062Z,40.60
2018-07-26T09:35:05.221Z,40.70
2018-07-26T09:37:34.359Z,41.00
2018-07-26T09:40:03.732Z,40.40
2018-07-26T09:42:33.478Z,40.80
2018-07-26T09:45:02.175Z,41.00
2018-07-26T09:47:31.798Z,41.00
2018-07-26T09:50:00.348Z,41.10
2018-07-26T09:52:29.026Z,40.90
2018-07-26T09:54:57.857Z,41.00
2018-07-26T09:59:55.689Z,41.10
2018-07-26T10:02:24.336Z,41.20
2018-07-26T10:04:52.747Z,41.50
2018-07-26T10:07:21.267Z,41.80
2018-07-26T10:09:49.958Z,41.70
2018-07-26T10:12:19.470Z,41.90
2018-07-26T10:14:48.248Z,42.50
2018-07-26T10:17:19.878Z,42.00
2018-07-26T10:19:49.539Z,41.90
2018-07-26T10:22:19.236Z,41.80
2018-07-26T10:24:47.921Z,42.10
2018-07-26T10:27:16.591Z,42.00
2018-07-26T10:29:45.479Z,42.50
2018-07-26T10:32:14.201Z,42.70
2018-07-26T10:34:42.895Z,42.60
2018-07-26T10:37:12.623Z,42.50
2018-07-26T10:39:41.887Z,42.30
2018-07-26T10:42:13.386Z,42.50
2018-07-26T10:44:42.072Z,43.10
2018-07-26T10:47:10.614Z,42.40
2018-07-26T10:49:40.128Z,42.40
2018-07-26T10:52:08.730Z,42.50
2018-07-26T10:54:37.671Z,42.30
2018-07-26T10:57:07.545Z,42.30
2018-07-26T10:59:38.315Z,42.20
2018-07-26T11:02:07.492Z,42.60
2018-07-26T11:04:36.465Z,43.10
2018-07-26T11:07:05.143Z,42.60
2018-07-26T11:09:33.975Z,42.80
2018-07-26T11:12:03.417Z,42.60
2018-07-26T11:14:32.891Z,42.60
2018-07-26T11:17:01.455Z,42.80
2018-07-26T11:19:29.972Z,42.70
2018-07-26T11:21:59.588Z,43.20
2018-07-26T11:24:28.128Z,42.80
2018-07-26T11:26:56.895Z,42.90
2018-07-26T11:29:26.532Z,42.80
2018-07-26T11:31:55.203Z,42.80
2018-07-26T11:34:23.721Z,42.80
2018-07-26T11:36:52.367Z,43.30
2018-07-26T11:39:21.239Z,43.60
2018-07-26T11:41:50.102Z,43.10
2018-07-26T11:44:18.807Z,43.30
2018-07-26T11:46:47.525Z,43.20
2018-07-26T11:49:16.328Z,43.30
2018-07-26T11:51:45.190Z,43.30
2018-07-26T11:54:15.178Z,43.10
2018-07-26T11:56:43.825Z,43.00
2018-07-26T12:01:41.607Z,43.10
2018-07-26T12:04:10.391Z,43.00
2018-07-26T12:06:40.304Z,43.00
2018-07-26T12:09:10.725Z,43.10
2018-07-26T12:11:39.913Z,43.10
2018-07-26T12:14:09.142Z,43.10
2018-07-26T12:16:37.840Z,43.00
2018-07-26T12:19:06.547Z,43.30
2018-07-26T12:21:35.471Z,43.20
2018-07-26T12:24:05.479Z,43.50
2018-07-26T12:26:34.038Z,43.80
2018-07-26T12:29:02.799Z,43.70
2018-07-26T12:31:32.386Z,44.30
2018-07-26T12:34:01.020Z,43.80
2018-07-26T12:36:29.664Z,44.10
2018-07-26T12:38:59.680Z,43.80
2018-07-26T12:41:29.065Z,44.20
2018-07-26T12:43:57.733Z,44.20
2018-07-26T12:48:56.537Z,43.50
2018-07-26T12:53:57.218Z,43.50
2018-07-26T12:56:27.381Z,43.50
2018-07-26T12:58:56.358Z,43.20
2018-07-26T13:01:25.599Z,43.40
2018-07-26T13:03:55.105Z,43.60
2018-07-26T13:06:24.025Z,43.40
2018-07-26T13:08:53.195Z,43.00
2018-07-26T13:11:22.527Z,42.90
2018-07-26T13:13:51.415Z,43.10
2018-07-26T13:16:20.581Z,43.50
2018-07-26T13:18:49.143Z,43.40
2018-07-26T13:21:18.060Z,43.50
2018-07-26T13:23:46.454Z,43.50
2018-07-26T13:26:15.475Z,43.60
2018-07-26T13:28:44.652Z,43.70
2018-07-26T13:31:13.334Z,43.60
2018-07-26T13:33:41.909Z,43.40
2018-07-26T13:36:10.087Z,43.50
2018-07-26T13:48:24.172Z,43.60
2018-07-26T13:50:53.592Z,43.00
2018-07-26T13:53:22.258Z,43.00
2018-07-26T13:55:50.870Z,43.30
2018-07-26T13:58:20.037Z,43.20
2018-07-26T14:00:49.280Z,43.50
2018-07-26T14:05:45.949Z,43.70
2018-07-26T14:08:14.475Z,43.80
2018-07-26T14:10:42.996Z,43.90
2018-07-26T14:13:11.760Z,43.50
2018-07-26T14:15:40.493Z,43.50
2018-07-26T14:20:37.617Z,42.90
2018-07-26T14:23:06.416Z,42.70
2018-07-26T14:25:35.073Z,43.00
2018-07-26T14:28:03.631Z,42.10
2018-07-26T14:30:32.169Z,41.80
2018-07-26T14:33:00.791Z,41.60
2018-07-26T14:35:29.270Z,41.90
2018-07-26T14:37:57.904Z,42.80
2018-07-26T14:40:27.167Z,42.80
2018-07-26T14:42:55.844Z,42.70
2018-07-26T14:45:24.483Z,42.80
2018-07-26T14:47:54.337Z,43.10
2018-07-26T14:50:22.508Z,43.10
2018-07-26T14:52:51.187Z,43.30
2018-07-26T14:55:19.784Z,43.60
2018-07-26T14:57:48.384Z,44.00
2018-07-26T15:00:16.878Z,43.80
2018-07-26T15:02:46.037Z,43.60
2018-07-26T15:05:15.044Z,44.20
2018-07-26T15:07:43.839Z,43.80
2018-07-26T15:10:12.743Z,43.60
2018-07-26T15:12:42.160Z,43.90
2018-07-26T15:15:11.860Z,43.40
2018-07-26T15:17:40.703Z,43.40
2018-07-26T15:22:38.846Z,42.80
2018-07-26T15:25:08.003Z,43.20
2018-07-26T15:27:38.371Z,42.80
2018-07-26T15:30:08.700Z,42.80
2018-07-26T15:32:38.976Z,42.80
2018-07-26T15:35:10.523Z,43.60
2018-07-26T15:37:43.370Z,42.80
2018-07-26T15:40:12.211Z,42.90
2018-07-26T15:42:42.879Z,42.90
2018-07-26T15:45:12.005Z,42.30
2018-07-26T15:47:40.915Z,42.40
2018-07-26T15:50:09.510Z,42.40
2018-07-26T15:52:38.875Z,42.20
2018-07-26T15:55:07.630Z,42.10
2018-07-26T15:57:36.602Z,42.10
2018-07-26T16:00:10.322Z,41.90
2018-07-26T16:02:39.153Z,42.50
2018-07-26T16:05:08.101Z,41.50
2018-07-26T16:07:37.604Z,41.50
2018-07-26T16:10:08.122Z,41.70
2018-07-26T16:12:37.295Z,41.60
2018-07-26T16:15:09.488Z,41.10
2018-07-26T16:17:38.399Z,41.00
2018-07-26T16:22:37.550Z,40.80
2018-07-26T16:25:08.535Z,40.90
2018-07-26T16:27:42.319Z,40.40
2018-07-26T16:30:12.571Z,40.40
2018-07-26T16:32:42.388Z,40.40
2018-07-26T16:35:15.153Z,39.80
2018-07-26T16:37:45.601Z,38.30
2018-07-26T16:40:17.698Z,36.70
2018-07-26T16:42:46.275Z,35.60
2018-07-26T16:45:18.401Z,34.10
2018-07-26T16:47:48.389Z,32.90
2018-07-26T16:50:18.884Z,32.40
2018-07-26T16:52:49.683Z,32.40
2018-07-26T16:55:21.727Z,32.00
2018-07-26T16:57:57.006Z,31.20
2018-07-26T17:00:29.379Z,31.50
2018-07-26T17:03:00.595Z,31.40
2018-07-26T17:05:29.473Z,31.30
2018-07-26T17:07:59.481Z,30.70
2018-07-26T17:10:28.446Z,30.80
2018-07-26T17:13:00.603Z,30.80
2018-07-26T17:15:32.295Z,30.90
2018-07-26T17:18:02.289Z,31.30
2018-07-26T17:20:32.365Z,31.10
2018-07-26T17:23:10.872Z,30.40
2018-07-26T17:25:40.700Z,30.30
2018-07-26T17:30:43.951Z,30.30
2018-07-26T17:33:14.497Z,30.70
2018-07-26T17:35:43.615Z,30.40
2018-07-26T17:38:12.998Z,30.60
2018-07-26T17:40:41.614Z,30.90
2018-07-26T17:43:10.396Z,30.80
2018-07-26T17:45:40.923Z,30.60
2018-07-26T17:48:09.565Z,30.50
2018-07-26T17:50:38.826Z,30.70
2018-07-26T17:53:08.275Z,30.80
2018-07-26T17:55:39.562Z,30.50
2018-07-26T18:00:37.377Z,30.60
2018-07-26T18:03:06.240Z,30.70
2018-07-26T18:05:35.464Z,30.50
2018-07-26T18:08:04.228Z,30.80
2018-07-26T18:10:33.500Z,30.40
2018-07-26T18:13:02.207Z,30.30
2018-07-26T18:15:32.472Z,30.40
2018-07-26T18:18:01.240Z,30.60
2018-07-26T18:20:29.629Z,30.00
2018-07-26T18:25:27.736Z,29.60
2018-07-26T18:27:56.358Z,29.80
2018-07-26T18:30:24.939Z,29.80
2018-07-26T18:32:53.564Z,29.70
2018-07-26T18:35:21.992Z,30.20
2018-07-26T18:37:51.018Z,30.20
2018-07-26T18:40:19.757Z,29.80
2018-07-26T18:42:48.595Z,30.90
2018-07-26T18:45:17.115Z,30.50
2018-07-26T18:47:46.567Z,30.70
2018-07-26T18:50:15.046Z,30.40
2018-07-26T18:52:43.880Z,30.50
2018-07-26T18:55:12.485Z,30.90
2018-07-26T18:57:41.001Z,30.90
2018-07-26T19:00:12.147Z,31.00
2018-07-26T19:02:41.273Z,30.60
2018-07-26T19:05:09.683Z,30.80
2018-07-26T19:07:38.600Z,30.50
2018-07-26T19:12:39.947Z,30.50
2018-07-26T19:15:11.117Z,30.60
2018-07-26T19:20:10.204Z,30.20
2018-07-26T19:22:38.883Z,30.70
2018-07-26T19:25:08.684Z,30.70
2018-07-26T19:27:37.731Z,30.10
2018-07-26T19:30:09.784Z,29.50
2018-07-26T19:32:38.891Z,30.50
2018-07-26T19:35:07.396Z,29.90
2018-07-26T19:37:36.057Z,29.90
2018-07-26T19:40:07.151Z,30.20
2018-07-26T19:47:35.756Z,29.40
2018-07-26T19:50:04.791Z,29.40
2018-07-26T19:52:34.552Z,29.90
2018-07-26T19:55:03.459Z,29.80
2018-07-26T19:57:32.442Z,29.50
2018-07-26T20:00:03.655Z,30.00
2018-07-26T20:02:34.568Z,29.40
2018-07-26T20:05:06.566Z,29.10
2018-07-26T20:07:36.441Z,29.90
2018-07-26T20:12:44.594Z,29.30
2018-07-26T20:20:15.317Z,29.00
2018-07-26T20:22:45.172Z,28.90
2018-07-26T20:25:16.063Z,28.90
2018-07-26T20:27:44.948Z,28.60
2018-07-26T20:30:14.386Z,28.40
2018-07-26T20:32:43.311Z,28.40
2018-07-26T20:35:14.671Z,28.20
2018-07-26T20:40:13.211Z,28.40
2018-07-26T20:42:43.044Z,28.50
2018-07-26T20:45:14.602Z,28.70
2018-07-26T20:47:44.616Z,28.60
2018-07-26T20:50:14.984Z,28.20
2018-07-26T20:52:44.288Z,28.10
2018-07-26T20:55:14.188Z,28.10
2018-07-26T20:57:43.809Z,27.90
2018-07-26T21:00:14.199Z,28.10
2018-07-26T21:02:43.887Z,28.40
2018-07-26T21:05:14.068Z,28.00
2018-07-26T21:07:42.885Z,27.70
2018-07-26T21:10:13.254Z,27.70
2018-07-26T21:12:42.687Z,28.10
2018-07-26T21:15:11.625Z,27.80
2018-07-26T21:20:13.291Z,27.60
2018-07-26T21:22:42.134Z,27.90
2018-07-26T21:25:12.625Z,28.20
2018-07-26T21:30:11.983Z,27.70
2018-07-26T21:32:41.799Z,27.70
2018-07-26T21:35:11.682Z,28.10
2018-07-26T21:37:41.850Z,27.70
2018-07-26T21:42:48.483Z,27.70
2018-07-26T21:45:20.180Z,27.90
2018-07-26T21:47:50.039Z,28.10
2018-07-26T21:50:18.662Z,27.50
2018-07-26T21:57:46.605Z,27.50
2018-07-26T22:00:18.276Z,27.40
2018-07-26T22:07:47.567Z,27.20
2018-07-26T22:10:16.370Z,27.30
2018-07-26T22:17:46.852Z,27.40
2018-07-26T22:20:15.389Z,27.30
2018-07-26T22:22:46.375Z,27.50
2018-07-26T22:27:45.789Z,27.50
2018-07-26T22:30:15.288Z,27.40
2018-07-26T22:32:46.969Z,26.80
2018-07-26T22:37:47.943Z,27.10
2018-07-26T22:42:46.019Z,27.30
2018-07-26T22:45:18.301Z,27.80
2018-07-26T22:50:19.213Z,27.10
2018-07-26T22:52:48.709Z,27.20
2018-07-26T22:55:18.960Z,27.60
2018-07-26T22:57:48.270Z,27.40
2018-07-26T23:00:19.637Z,27.10
2018-07-26T23:02:51.494Z,27.30
2018-07-26T23:05:20.524Z,27.30
2018-07-26T23:07:51.073Z,27.60
2018-07-26T23:10:20.671Z,27.30
2018-07-26T23:12:50.771Z,26.90
2018-07-26T23:15:20.668Z,27.60
2018-07-26T23:17:51.156Z,27.60
2018-07-26T23:20:20.511Z,27.70
2018-07-26T23:22:54.674Z,27.60
2018-07-26T23:25:24.298Z,27.30
2018-07-26T23:27:53.100Z,27.30
2018-07-26T23:30:22.017Z,27.90
2018-07-26T23:32:51.644Z,27.60
2018-07-26T23:35:20.292Z,27.60
2018-07-26T23:37:49.281Z,27.40
2018-07-26T23:40:18.108Z,26.70
2018-07-26T23:42:47.215Z,27.30
2018-07-26T23:45:16.053Z,27.40
2018-07-26T23:47:45.286Z,27.50
2018-07-26T23:50:15.482Z,27.20
2018-07-26T23:52:45.321Z,27.40
2018-07-26T23:55:15.242Z,26.90
2018-07-26T23:57:45.877Z,26.90
